createdAt,value
2023-03-03T00:01:36.929Z,99066.13
2023-03-03T00:04:40.085Z,99064.38
2023-03-03T00:07:43.465Z,99059.13
2023-03-03T00:10:47.169Z,99052.13
2023-03-03T00:13:49.963Z,99055.59
2023-03-03T00:16:51.859Z,99060.00
2023-03-03T00:19:54.862Z,99058.25
2023-03-03T00:22:57.044Z,99058.22
2023-03-03T00:25:59.272Z,99058.22
2023-03-03T00:29:01.990Z,99061.72
2023-03-03T00:32:21.490Z,99059.97
2023-03-03T00:35:26.523Z,99052.97
2023-03-03T00:38:28.090Z,99057.34
2023-03-03T00:41:30.168Z,99041.59
2023-03-03T00:44:37.928Z,99044.22
2023-03-03T00:47:43.377Z,99056.47
2023-03-03T00:50:46.561Z,99043.34
2023-03-03T00:53:48.400Z,99046.84
2023-03-03T00:56:49.974Z,99045.94
2023-03-03T00:59:52.390Z,99048.56
2023-03-03T01:02:54.807Z,99047.69
2023-03-03T01:06:00.471Z,99053.81
2023-03-03T01:09:02.032Z,99052.06
2023-03-03T01:15:24.551Z,99041.56
2023-03-03T01:18:26.720Z,99045.06
2023-03-03T01:21:29.747Z,99048.56
2023-03-03T01:24:31.323Z,99045.91
2023-03-03T01:27:34.454Z,99046.75
2023-03-03T01:30:36.282Z,99057.25
2023-03-03T01:33:37.831Z,99053.69
2023-03-03T01:36:41.233Z,99043.19
2023-03-03T01:39:43.156Z,99044.09
2023-03-03T01:42:47.187Z,99052.81
2023-03-03T01:46:08.078Z,99050.22
2023-03-03T01:49:13.061Z,99060.66
2023-03-03T01:52:21.326Z,99058.03
2023-03-03T01:55:25.969Z,99063.22
2023-03-03T01:58:30.372Z,99066.72
2023-03-03T02:01:32.855Z,99063.19
2023-03-03T02:04:35.432Z,99063.19
2023-03-03T02:07:38.537Z,99071.06
2023-03-03T02:10:40.621Z,99072.78
2023-03-03T02:13:42.398Z,99071.03
2023-03-03T02:16:44.363Z,99069.31
2023-03-03T02:19:50.138Z,99066.75
2023-03-03T02:22:55.412Z,99063.25
2023-03-03T02:26:05.730Z,99052.72
2023-03-03T02:29:08.581Z,99052.69
2023-03-03T02:32:10.860Z,99057.00
2023-03-03T02:35:27.491Z,99057.00
2023-03-03T02:38:31.006Z,99051.78
2023-03-03T02:41:35.935Z,99055.31
2023-03-03T02:44:39.494Z,99053.56
2023-03-03T02:47:41.122Z,99057.94
2023-03-03T02:50:42.768Z,99061.50
2023-03-03T02:53:44.328Z,99052.75
2023-03-03T02:56:47.592Z,99057.06
2023-03-03T02:59:49.296Z,99057.06
2023-03-03T03:02:52.580Z,99059.75
2023-03-03T03:05:54.614Z,99065.88
2023-03-03T03:08:57.758Z,99062.38
2023-03-03T03:12:02.611Z,99058.81
2023-03-03T03:15:10.054Z,99065.75
2023-03-03T03:18:15.215Z,99056.19
2023-03-03T03:21:18.605Z,99041.34
2023-03-03T03:24:21.018Z,99050.94
2023-03-03T03:27:30.569Z,99049.19
2023-03-03T03:30:32.415Z,99041.28
2023-03-03T03:33:34.383Z,99050.94
2023-03-03T03:36:38.531Z,99050.97
2023-03-03T03:39:40.330Z,99059.72
2023-03-03T03:42:43.661Z,99063.13
2023-03-03T03:45:45.869Z,99062.25
2023-03-03T03:48:49.211Z,99074.34
2023-03-03T03:58:36.729Z,99066.47
2023-03-03T04:01:42.496Z,99068.28
2023-03-03T04:07:49.674Z,99070.84
2023-03-03T04:10:53.170Z,99073.41
2023-03-03T04:13:56.781Z,99074.34
2023-03-03T04:16:58.435Z,99065.69
2023-03-03T04:20:00.341Z,99067.34
2023-03-03T04:23:02.412Z,99058.56
2023-03-03T04:26:06.044Z,99057.69
2023-03-03T04:29:09.270Z,99058.56
2023-03-03T04:32:10.968Z,99057.72
2023-03-03T04:35:12.921Z,99055.94
2023-03-03T04:38:17.598Z,99051.56
2023-03-03T04:41:20.956Z,99052.50
2023-03-03T04:44:24.085Z,99053.41
2023-03-03T04:47:28.567Z,99057.78
2023-03-03T04:50:30.421Z,99055.19
2023-03-03T04:53:32.180Z,99064.81
2023-03-03T04:56:34.000Z,99062.19
2023-03-03T04:59:37.040Z,99073.53
2023-03-03T05:02:38.795Z,99071.75
2023-03-03T05:05:40.943Z,99075.22
2023-03-03T05:08:43.329Z,99085.59
2023-03-03T05:11:44.940Z,99096.03
2023-03-03T05:14:48.543Z,99088.16
2023-03-03T05:25:33.350Z,99097.75
2023-03-03T05:28:34.884Z,99099.50
2023-03-03T05:31:40.594Z,99093.38
2023-03-03T05:34:42.300Z,99106.41
2023-03-03T05:37:47.584Z,99105.56
2023-03-03T05:40:49.730Z,99107.34
2023-03-03T05:43:51.302Z,99103.78
2023-03-03T05:46:56.634Z,99094.97
2023-03-03T05:49:58.311Z,99094.16
2023-03-03T05:52:59.840Z,99090.66
2023-03-03T05:56:01.440Z,99095.91
2023-03-03T05:59:03.611Z,99101.09
2023-03-03T06:02:06.791Z,99100.22
2023-03-03T06:05:09.027Z,99086.25
2023-03-03T06:08:10.766Z,99086.38
2023-03-03T06:11:13.107Z,99097.75
2023-03-03T06:14:15.276Z,99096.91
2023-03-03T06:17:18.384Z,99091.72
2023-03-03T06:20:20.012Z,99102.22
2023-03-03T06:23:21.982Z,99102.19
2023-03-03T06:26:23.791Z,99103.00
2023-03-03T06:33:06.352Z,99110.94
2023-03-03T06:36:11.048Z,99110.94
2023-03-03T06:39:13.053Z,99120.63
2023-03-03T06:42:15.081Z,99117.94
2023-03-03T06:45:16.837Z,99115.28
2023-03-03T06:48:18.632Z,99129.19
2023-03-03T06:51:23.937Z,99127.44
2023-03-03T06:54:30.334Z,99131.88
2023-03-03T06:57:33.077Z,99131.91
2023-03-03T07:00:34.752Z,99143.31
2023-03-03T07:03:36.407Z,99147.63
2023-03-03T07:06:39.454Z,99153.66
2023-03-03T07:09:41.307Z,99158.84
2023-03-03T07:12:42.914Z,99166.72
2023-03-03T07:15:44.968Z,99168.53
2023-03-03T07:18:50.966Z,99170.19
2023-03-03T07:21:53.844Z,99172.72
2023-03-03T07:24:57.561Z,99179.72
2023-03-03T07:28:02.006Z,99174.47
2023-03-03T07:31:16.547Z,99172.66
2023-03-03T07:34:21.253Z,99171.72
2023-03-03T07:37:28.981Z,99180.56
2023-03-03T07:40:35.395Z,99183.28
2023-03-03T07:43:38.056Z,99184.19
2023-03-03T07:46:44.088Z,99180.81
2023-03-03T07:49:46.577Z,99183.59
2023-03-03T07:52:56.838Z,99181.94
2023-03-03T07:55:58.552Z,99191.59
2023-03-03T07:59:07.501Z,99195.03
2023-03-03T08:02:20.150Z,99207.09
2023-03-03T08:05:28.436Z,99213.31
2023-03-03T08:08:35.371Z,99208.84
2023-03-03T08:11:37.838Z,99214.94
2023-03-03T08:14:39.508Z,99211.44
2023-03-03T08:17:42.844Z,99207.97
2023-03-03T08:20:46.388Z,99209.00
2023-03-03T08:23:51.571Z,99207.25
2023-03-03T08:26:53.055Z,99208.13
2023-03-03T08:29:57.069Z,99207.25
2023-03-03T08:32:58.672Z,99206.44
2023-03-03T08:36:00.500Z,99202.91
2023-03-03T08:39:04.765Z,99202.97
2023-03-03T08:42:06.401Z,99208.22
2023-03-03T08:45:08.191Z,99205.56
2023-03-03T08:48:11.878Z,99210.91
2023-03-03T08:51:13.435Z,99214.50
2023-03-03T08:54:16.581Z,99215.31
2023-03-03T08:57:19.105Z,99212.56
2023-03-03T09:00:21.419Z,99211.72
2023-03-03T09:03:23.040Z,99218.94
2023-03-03T09:06:25.115Z,99224.09
2023-03-03T09:09:28.313Z,99223.22
2023-03-03T09:12:30.808Z,99216.31
2023-03-03T09:15:33.263Z,99222.44
2023-03-03T09:18:35.997Z,99224.97
2023-03-03T09:21:37.573Z,99227.59
2023-03-03T09:24:42.326Z,99227.59
2023-03-03T09:27:44.161Z,99227.50
2023-03-03T09:30:48.462Z,99226.66
2023-03-03T09:33:51.630Z,99219.72
2023-03-03T09:36:53.922Z,99232.91
2023-03-03T09:40:00.503Z,99232.09
2023-03-03T09:43:04.803Z,99232.97
2023-03-03T09:46:09.613Z,99231.19
2023-03-03T09:49:17.341Z,99235.53
2023-03-03T09:52:26.993Z,99235.69
2023-03-03T09:55:45.060Z,99237.56
2023-03-03T09:58:54.055Z,99241.00
2023-03-03T10:02:06.225Z,99242.81
2023-03-03T10:05:14.539Z,99243.69
2023-03-03T10:08:31.622Z,99247.06
2023-03-03T10:11:37.961Z,99242.69
2023-03-03T10:14:47.403Z,99248.78
2023-03-03T10:17:50.827Z,99249.66
2023-03-03T10:21:01.996Z,99248.03
2023-03-03T10:24:12.537Z,99249.84
2023-03-03T10:27:24.868Z,99259.56
2023-03-03T10:30:42.370Z,99254.41
2023-03-03T10:33:53.608Z,99248.34
2023-03-03T10:36:55.779Z,99246.63
2023-03-03T10:40:05.628Z,99250.13
2023-03-03T10:43:31.869Z,99255.34
2023-03-03T10:46:55.212Z,99242.19
2023-03-03T10:50:02.934Z,99254.47
2023-03-03T10:53:13.216Z,99260.63
2023-03-03T10:56:21.106Z,99248.34
2023-03-03T10:59:44.205Z,99250.97
2023-03-03T11:02:53.900Z,99252.75
2023-03-03T11:05:58.968Z,99256.25
2023-03-03T11:09:04.348Z,99248.34
2023-03-03T11:12:10.721Z,99250.09
2023-03-03T11:15:21.593Z,99248.38
2023-03-03T11:18:33.846Z,99250.13
2023-03-03T11:21:41.318Z,99251.84
2023-03-03T11:24:52.256Z,99254.47
2023-03-03T11:28:11.992Z,99251.84
2023-03-03T11:31:19.812Z,99244.81
2023-03-03T11:34:32.556Z,99246.63
2023-03-03T11:37:39.203Z,99245.75
2023-03-03T11:40:45.776Z,99239.59
2023-03-03T11:43:50.373Z,99249.28
2023-03-03T11:46:56.546Z,99244.88
2023-03-03T11:50:01.750Z,99244.00
2023-03-03T11:53:10.005Z,99235.22
2023-03-03T11:56:17.764Z,99235.25
2023-03-03T11:59:33.218Z,99236.97
2023-03-03T12:02:54.639Z,99234.34
2023-03-03T12:06:03.132Z,99228.25
2023-03-03T12:09:19.816Z,99225.59
2023-03-03T12:12:24.069Z,99225.59
2023-03-03T12:15:31.276Z,99229.97
2023-03-03T12:19:00.175Z,99224.69
2023-03-03T12:22:08.421Z,99222.06
2023-03-03T12:25:18.195Z,99212.38
2023-03-03T12:28:24.537Z,99210.59
2023-03-03T12:31:35.563Z,99211.53
2023-03-03T12:34:41.844Z,99202.78
2023-03-03T12:37:58.141Z,99194.84
2023-03-03T12:41:05.282Z,99200.06
2023-03-03T12:44:14.538Z,99196.63
2023-03-03T12:47:23.235Z,99193.91
2023-03-03T12:50:31.184Z,99187.75
2023-03-03T12:53:40.556Z,99185.09
2023-03-03T12:56:48.840Z,99191.28
2023-03-03T13:00:00.262Z,99183.34
2023-03-03T13:03:05.741Z,99185.13
2023-03-03T13:06:11.252Z,99185.06
2023-03-03T13:09:19.035Z,99169.25
2023-03-03T13:12:30.450Z,99175.25
2023-03-03T13:15:37.638Z,99170.03
2023-03-03T13:18:48.750Z,99171.78
2023-03-03T13:22:15.104Z,99163.88
2023-03-03T13:25:26.942Z,99173.31
2023-03-03T13:28:31.294Z,99174.75
2023-03-03T13:31:34.419Z,99168.81
2023-03-03T13:34:40.696Z,99161.81
2023-03-03T13:37:44.364Z,99157.50
2023-03-03T13:40:49.533Z,99161.66
2023-03-03T13:43:54.918Z,99155.66
2023-03-03T13:47:02.741Z,99162.88
2023-03-03T13:50:11.545Z,99155.06
2023-03-03T13:53:24.085Z,99148.72
2023-03-03T13:56:35.717Z,99152.94
2023-03-03T13:59:42.288Z,99148.56
2023-03-03T14:02:51.944Z,99150.47
2023-03-03T14:05:57.544Z,99152.94
2023-03-03T14:09:06.351Z,99152.88
2023-03-03T14:12:14.160Z,99148.47
2023-03-03T14:23:08.023Z,99144.38
2023-03-03T14:26:10.769Z,99136.31
2023-03-03T14:29:19.210Z,99130.75
2023-03-03T14:32:22.005Z,99139.19
2023-03-03T14:38:47.163Z,99123.50
2023-03-03T14:41:49.292Z,99117.91
2023-03-03T14:44:55.382Z,99120.94
2023-03-03T15:06:30.842Z,99096.94
2023-03-03T15:17:32.971Z,99089.28
2023-03-03T15:20:41.031Z,99088.38
2023-03-03T15:23:48.226Z,99087.66
2023-03-03T15:26:52.138Z,99084.28
2023-03-03T15:30:02.215Z,99080.50
2023-03-03T15:33:07.295Z,99075.19
2023-03-03T15:36:14.825Z,99080.38
2023-03-03T15:39:23.634Z,99076.00
2023-03-03T15:42:29.417Z,99073.47
2023-03-03T15:45:33.962Z,99073.59
2023-03-03T15:48:44.026Z,99070.88
2023-03-03T15:52:03.412Z,99067.38
2023-03-03T15:55:13.456Z,99067.63
2023-03-03T15:58:26.820Z,99066.06
2023-03-03T16:01:29.988Z,99079.34
2023-03-03T16:04:32.968Z,99073.22
2023-03-03T16:07:41.498Z,99080.31
2023-03-03T16:10:54.853Z,99080.44
2023-03-03T16:14:01.925Z,99083.19
2023-03-03T16:17:11.514Z,99085.81
2023-03-03T16:20:18.021Z,99081.41
2023-03-03T16:23:23.962Z,99086.66
2023-03-03T16:26:36.613Z,99089.38
2023-03-03T16:29:42.979Z,99085.94
2023-03-03T16:32:46.469Z,99086.06
2023-03-03T16:35:52.106Z,99087.03
2023-03-03T16:53:19.299Z,99095.22
2023-03-03T16:56:23.466Z,99092.66
2023-03-03T17:03:16.408Z,99087.53
2023-03-03T17:09:44.442Z,99086.75
2023-03-03T17:12:55.619Z,99086.78
2023-03-03T17:16:04.173Z,99089.41
2023-03-03T17:19:14.254Z,99093.84
2023-03-03T17:22:19.740Z,99091.25
2023-03-03T17:28:47.022Z,99085.16
2023-03-03T17:31:53.515Z,99091.31
2023-03-03T17:35:08.401Z,99086.06
2023-03-03T17:38:17.276Z,99080.81
2023-03-03T17:41:23.735Z,99092.25
2023-03-03T17:44:30.771Z,99090.50
2023-03-03T17:47:41.162Z,99101.06
2023-03-03T17:50:54.150Z,99094.94
2023-03-03T17:54:14.631Z,99095.84
2023-03-03T17:57:26.074Z,99092.34
2023-03-03T18:00:36.469Z,99094.97
2023-03-03T18:03:49.973Z,99095.88
2023-03-03T18:07:05.024Z,99090.63
2023-03-03T18:10:14.480Z,99094.13
2023-03-03T18:13:24.595Z,99102.91
2023-03-03T18:16:34.828Z,99095.88
2023-03-03T18:19:52.640Z,99107.28
2023-03-03T18:22:54.871Z,99111.69
2023-03-03T18:25:58.244Z,99107.28
2023-03-03T18:29:11.592Z,99109.06
2023-03-03T18:32:19.817Z,99111.69
2023-03-03T18:35:25.066Z,99116.06
2023-03-03T18:42:09.461Z,99129.22
2023-03-03T18:45:31.944Z,99123.09
2023-03-03T18:48:49.282Z,99118.72
2023-03-03T18:51:51.812Z,99125.72
2023-03-03T18:55:05.041Z,99122.22
2023-03-03T18:58:28.931Z,99128.34
2023-03-03T19:01:36.176Z,99119.56
2023-03-03T19:04:40.395Z,99125.72
2023-03-03T19:07:52.612Z,99126.59
2023-03-03T19:10:55.636Z,99123.09
2023-03-03T19:14:14.169Z,99123.94
2023-03-03T19:17:34.577Z,99122.19
2023-03-03T19:20:39.732Z,99123.94
2023-03-03T19:23:49.166Z,99121.31
2023-03-03T19:27:11.978Z,99119.56
2023-03-03T19:30:22.666Z,99118.69
2023-03-03T19:33:35.781Z,99117.78
2023-03-03T19:36:47.459Z,99118.66
2023-03-03T19:39:53.687Z,99117.78
2023-03-03T19:43:00.779Z,99131.81
2023-03-03T19:46:16.790Z,99123.91
2023-03-03T19:49:24.839Z,99128.31
2023-03-03T19:52:36.557Z,99130.94
2023-03-03T19:55:43.487Z,99125.66
2023-03-03T19:58:50.751Z,99132.69
2023-03-03T20:02:00.097Z,99119.53
2023-03-03T20:05:06.978Z,99130.94
2023-03-03T20:08:14.789Z,99135.31
2023-03-03T20:11:25.139Z,99137.06
2023-03-03T20:14:35.592Z,99141.47
2023-03-03T20:17:52.370Z,99137.06
2023-03-03T20:20:56.973Z,99128.28
2023-03-03T20:24:13.536Z,99124.78
2023-03-03T20:27:18.540Z,99124.78
2023-03-03T20:30:33.255Z,99124.78
2023-03-03T20:33:44.142Z,99124.78
2023-03-03T20:36:52.284Z,99125.63
2023-03-03T20:39:59.954Z,99127.38
2023-03-03T20:43:09.072Z,99124.75
2023-03-03T20:46:15.920Z,99127.38
2023-03-03T20:49:35.515Z,99129.97
2023-03-03T20:52:42.718Z,99125.59
2023-03-03T20:55:50.091Z,99116.81
2023-03-03T20:59:04.846Z,99122.97
2023-03-03T21:02:15.387Z,99116.81
2023-03-03T21:05:18.044Z,99116.81
2023-03-03T21:08:19.974Z,99118.56
2023-03-03T21:11:23.784Z,99122.97
2023-03-03T21:14:27.785Z,99115.97
2023-03-03T21:17:30.331Z,99112.47
2023-03-03T21:20:32.813Z,99109.81
2023-03-03T21:23:34.417Z,99113.31
2023-03-03T21:26:49.886Z,99110.66
2023-03-03T21:30:04.085Z,99115.94
2023-03-03T21:33:05.810Z,99117.69
2023-03-03T21:36:07.867Z,99115.97
2023-03-03T21:39:19.783Z,99113.31
2023-03-03T21:42:38.940Z,99115.91
2023-03-03T21:45:44.669Z,99109.78
2023-03-03T21:48:46.372Z,99106.28
2023-03-03T21:51:47.997Z,99108.91
2023-03-03T21:54:50.753Z,99100.13
2023-03-03T21:57:52.259Z,99102.75
2023-03-03T22:00:55.134Z,99094.84
2023-03-03T22:03:56.747Z,99097.47
2023-03-03T22:06:58.454Z,99093.97
2023-03-03T22:10:00.288Z,99097.47
2023-03-03T22:13:02.180Z,99087.81
2023-03-03T22:16:07.931Z,99080.81
2023-03-03T22:19:09.720Z,99079.09
2023-03-03T22:22:11.301Z,99075.59
2023-03-03T22:25:12.878Z,99079.97
2023-03-03T22:28:15.060Z,99086.97
2023-03-03T22:31:19.893Z,99086.13
2023-03-03T22:34:21.681Z,99080.00
2023-03-03T22:37:23.289Z,99074.75
2023-03-03T22:40:24.939Z,99076.47
2023-03-03T22:43:27.541Z,99070.31
2023-03-03T22:46:30.408Z,99072.97
2023-03-03T22:49:31.994Z,99069.44
2023-03-03T22:52:33.632Z,99065.06
2023-03-03T22:55:54.895Z,99068.56
2023-03-03T22:58:56.633Z,99069.44
2023-03-03T23:02:00.692Z,99068.56
2023-03-03T23:05:08.820Z,99063.28
2023-03-03T23:08:15.670Z,99065.94
2023-03-03T23:11:21.922Z,99065.03
2023-03-03T23:14:23.813Z,99064.13
2023-03-03T23:17:27.059Z,99064.13
2023-03-03T23:20:30.002Z,99057.13
2023-03-03T23:23:31.594Z,99065.91
2023-03-03T23:26:33.198Z,99065.00
2023-03-03T23:29:35.024Z,99056.19
2023-03-03T23:32:37.980Z,99053.56
2023-03-03T23:35:39.607Z,99049.16
2023-03-03T23:38:52.837Z,99053.53
2023-03-03T23:41:54.408Z,99054.41
2023-03-03T23:44:56.069Z,99044.78
2023-03-03T23:47:59.190Z,99047.41
2023-03-03T23:51:01.508Z,99048.28
2023-03-03T23:54:03.249Z,99039.50
2023-03-03T23:57:07.644Z,99047.38
